TimeEST,TemperatureF,Dew PointF,Humidity,Sea Level PressureIn,VisibilityMPH,Wind Direction,Wind SpeedMPH,Gust SpeedMPH,PrecipitationIn,Events,Conditions,WindDirDegrees,DateUTC
12:53 AM,59.0,54.0,83,30.20,10.0,NNE,6.9,-,N/A,,Clear,30,2013-12-18 05:53:00
1:53 AM,57.9,54.0,87,30.19,10.0,NE,5.8,-,N/A,,Clear,40,2013-12-18 06:53:00
2:53 AM,57.0,53.1,87,30.19,10.0,NE,4.6,-,N/A,,Clear,40,2013-12-18 07:53:00
3:53 AM,55.9,53.1,90,30.20,10.0,NE,5.8,-,N/A,,Clear,40,2013-12-18 08:53:00
4:53 AM,55.0,52.0,89,30.20,10.0,NE,5.8,-,N/A,,Clear,40,2013-12-18 09:53:00
5:53 AM,54.0,48.9,83,30.22,10.0,NE,4.6,-,N/A,,Clear,50,2013-12-18 10:53:00
6:53 AM,53.1,46.9,80,30.23,10.0,NE,4.6,-,N/A,,Clear,50,2013-12-18 11:53:00
7:53 AM,55.0,46.0,72,30.25,10.0,NE,5.8,-,N/A,,Clear,50,2013-12-18 12:53:00
8:53 AM,60.1,45.0,57,30.27,10.0,NE,10.4,-,N/A,,Clear,40,2013-12-18 13:53:00
9:53 AM,64.0,41.0,43,30.29,10.0,NE,11.5,-,N/A,,Clear,40,2013-12-18 14:53:00
10:53 AM,66.9,39.9,37,30.29,10.0,NE,12.7,-,N/A,,Clear,40,2013-12-18 15:53:00
11:53 AM,70.0,37.9,31,30.27,10.0,ENE,10.4,-,N/A,,Clear,60,2013-12-18 16:53:00
12:53 PM,71.1,37.9,30,30.23,10.0,NE,10.4,-,N/A,,Clear,50,2013-12-18 17:53:00
1:53 PM,73.9,36.0,25,30.21,10.0,NE,5.8,-,N/A,,Clear,50,2013-12-18 18:53:00
2:53 PM,75.0,37.9,26,30.19,10.0,NNE,10.4,-,N/A,,Clear,20,2013-12-18 19:53:00
3:53 PM,75.0,37.9,26,30.19,10.0,ENE,6.9,-,N/A,,Clear,70,2013-12-18 20:53:00
4:53 PM,72.0,39.9,31,30.20,10.0,NE,9.2,-,N/A,,Clear,40,2013-12-18 21:53:00
5:53 PM,66.0,43.0,43,30.21,10.0,NE,4.6,-,N/A,,Clear,40,2013-12-18 22:53:00
6:53 PM,63.0,43.0,48,30.22,10.0,NE,4.6,-,N/A,,Clear,50,2013-12-18 23:53:00
7:53 PM,62.1,43.0,50,30.24,10.0,NE,5.8,-,N/A,,Clear,50,2013-12-19 00:53:00
8:53 PM,61.0,43.0,52,30.25,10.0,NE,8.1,-,N/A,,Clear,50,2013-12-19 01:53:00
9:53 PM,57.9,44.1,60,30.27,10.0,East,3.5,-,N/A,,Clear,90,2013-12-19 02:53:00
10:53 PM,55.9,46.0,69,30.27,10.0,ENE,4.6,-,N/A,,Clear,70,2013-12-19 03:53:00
11:53 PM,55.0,46.9,74,30.26,10.0,ENE,4.6,-,N/A,,Clear,70,2013-12-19 04:53:00